createdAt,value
2022-12-22T00:00:11.830Z,53.00
2022-12-22T00:03:34.667Z,57.70
2022-12-22T00:06:55.103Z,61.60
2022-12-22T00:10:15.605Z,63.60
2022-12-22T00:13:35.904Z,58.80
2022-12-22T00:16:56.713Z,52.80
2022-12-22T00:20:18.722Z,55.00
2022-12-22T00:23:39.192Z,56.50
2022-12-22T00:26:59.642Z,58.90
2022-12-22T00:30:20.654Z,58.10
2022-12-22T00:33:41.292Z,63.80
2022-12-22T00:37:01.853Z,48.60
2022-12-22T00:40:34.552Z,54.80
2022-12-22T00:43:54.835Z,54.70
2022-12-22T00:47:15.036Z,54.30
2022-12-22T00:50:35.457Z,58.00
2022-12-22T00:53:55.630Z,49.40
2022-12-22T00:57:16.871Z,57.70
2022-12-22T01:00:37.853Z,52.50
2022-12-22T01:03:57.955Z,49.00
2022-12-22T01:07:18.549Z,52.00
2022-12-22T01:10:40.370Z,55.40
2022-12-22T01:14:00.722Z,53.90
2022-12-22T01:17:21.286Z,50.00
2022-12-22T01:20:41.685Z,52.90
2022-12-22T01:24:02.602Z,49.00
2022-12-22T01:27:23.415Z,53.80
2022-12-22T01:30:43.601Z,49.10
2022-12-22T01:34:03.898Z,47.40
2022-12-22T01:37:24.092Z,47.40
2022-12-22T01:40:44.746Z,50.70
2022-12-22T01:44:04.989Z,58.60
2022-12-22T01:47:44.387Z,49.50
2022-12-22T01:51:04.839Z,53.10
2022-12-22T01:54:26.213Z,59.00
2022-12-22T01:57:47.064Z,47.50
2022-12-22T02:01:07.276Z,48.40
2022-12-22T02:04:27.802Z,50.00
2022-12-22T02:08:03.627Z,46.10
2022-12-22T02:11:32.620Z,48.60
2022-12-22T02:14:52.986Z,64.30
2022-12-22T02:18:16.321Z,58.50
2022-12-22T02:21:39.449Z,53.30
2022-12-22T02:25:02.670Z,55.20
2022-12-22T02:28:23.117Z,55.80
2022-12-22T02:31:43.352Z,45.40
2022-12-22T02:35:03.804Z,50.10
2022-12-22T02:38:47.860Z,50.40
2022-12-22T02:42:13.084Z,52.80
2022-12-22T02:45:38.245Z,47.60
2022-12-22T02:49:06.573Z,52.30
2022-12-22T02:52:32.835Z,53.10
2022-12-22T02:55:53.208Z,47.80
2022-12-22T02:59:13.912Z,52.70
2022-12-22T03:02:34.361Z,53.30
2022-12-22T03:05:54.637Z,52.60
2022-12-22T03:09:19.029Z,49.30
2022-12-22T03:12:39.602Z,49.70
2022-12-22T03:15:59.758Z,50.70
2022-12-22T03:19:20.089Z,48.70
2022-12-22T03:22:40.695Z,46.10
2022-12-22T03:25:54.545Z,54.70
2022-12-22T03:28:56.301Z,48.00
2022-12-22T03:31:57.987Z,52.10
2022-12-22T03:34:59.630Z,54.90
2022-12-22T03:38:03.776Z,51.30
2022-12-22T03:41:05.455Z,49.90
2022-12-22T03:44:25.544Z,53.20
2022-12-22T03:47:27.276Z,55.30
2022-12-22T03:50:28.819Z,49.20
2022-12-22T03:53:30.363Z,52.40
2022-12-22T03:56:31.847Z,50.60
2022-12-22T03:59:33.479Z,54.30
2022-12-22T04:02:35.271Z,51.40
2022-12-22T04:05:36.943Z,56.40
2022-12-22T04:08:38.560Z,59.30
2022-12-22T04:11:59.060Z,54.30
2022-12-22T04:15:00.622Z,58.30
2022-12-22T04:18:02.592Z,57.20
2022-12-22T04:21:04.168Z,59.80
2022-12-22T04:24:06.003Z,57.60
2022-12-22T04:27:07.514Z,52.60
2022-12-22T04:30:09.429Z,59.70
2022-12-22T04:33:10.983Z,54.80
2022-12-22T04:36:13.880Z,56.30
2022-12-22T04:39:15.450Z,58.90
2022-12-22T04:42:17.102Z,57.20
2022-12-22T04:45:18.622Z,63.70
2022-12-22T04:48:20.719Z,58.90
2022-12-22T04:51:22.372Z,53.30
2022-12-22T04:54:24.043Z,61.60
2022-12-22T04:57:25.693Z,52.20
2022-12-22T05:00:27.252Z,58.60
2022-12-22T05:03:28.860Z,56.70
2022-12-22T05:06:30.589Z,50.50
2022-12-22T05:09:32.108Z,57.00
2022-12-22T05:12:52.627Z,54.50
2022-12-22T05:15:54.387Z,51.00
2022-12-22T05:18:56.048Z,49.90
2022-12-22T05:21:57.810Z,51.50
2022-12-22T05:24:59.367Z,63.20
2022-12-22T05:28:00.903Z,55.40
2022-12-22T05:31:06.757Z,57.30
2022-12-22T05:34:08.441Z,54.90
2022-12-22T05:37:09.918Z,54.40
2022-12-22T05:40:12.275Z,53.20
2022-12-22T05:43:14.038Z,50.80
2022-12-22T05:46:15.703Z,49.20
2022-12-22T05:49:17.460Z,48.70
2022-12-22T05:52:19.118Z,48.60
2022-12-22T05:55:20.780Z,50.50
2022-12-22T05:58:22.334Z,50.70
2022-12-22T06:01:23.928Z,49.10
2022-12-22T06:04:25.637Z,50.70
2022-12-22T06:07:27.321Z,48.70
2022-12-22T06:10:28.753Z,49.30
2022-12-22T06:13:30.309Z,53.40
2022-12-22T06:16:31.878Z,55.40
2022-12-22T06:19:33.668Z,42.50
2022-12-22T06:22:35.516Z,47.30
2022-12-22T06:25:37.101Z,52.30
2022-12-22T06:28:38.615Z,46.40
2022-12-22T06:31:40.315Z,46.40
2022-12-22T06:34:42.107Z,54.10
2022-12-22T06:37:43.704Z,53.20
2022-12-22T06:40:45.259Z,46.30
2022-12-22T06:43:46.816Z,44.80
2022-12-22T06:46:48.375Z,51.40
2022-12-22T06:49:50.238Z,45.00
2022-12-22T06:52:51.902Z,50.10
2022-12-22T06:55:53.562Z,49.70
2022-12-22T06:58:55.219Z,47.50
2022-12-22T07:01:56.963Z,50.00
2022-12-22T07:04:58.753Z,39.90
2022-12-22T07:08:07.667Z,46.90
2022-12-22T07:11:10.660Z,47.70
2022-12-22T07:14:12.323Z,41.20
2022-12-22T07:17:14.011Z,48.30
2022-12-22T07:20:15.781Z,44.30
2022-12-22T07:23:17.343Z,43.10
2022-12-22T07:26:19.064Z,46.20
2022-12-22T07:29:20.621Z,40.70
2022-12-22T07:32:22.282Z,44.30
2022-12-22T07:35:23.834Z,43.00
2022-12-22T07:38:25.501Z,40.40
2022-12-22T07:41:45.788Z,37.80
2022-12-22T07:44:47.551Z,42.30
2022-12-22T07:47:49.223Z,37.00
2022-12-22T07:50:50.728Z,47.30
2022-12-22T07:53:52.326Z,42.70
2022-12-22T07:56:54.203Z,41.90
2022-12-22T07:59:55.859Z,40.10
2022-12-22T08:02:57.813Z,40.40
2022-12-22T08:05:59.788Z,43.90
2022-12-22T08:09:01.748Z,40.10
2022-12-22T08:12:03.353Z,40.30
2022-12-22T08:15:05.888Z,46.90
2022-12-22T08:18:07.551Z,39.90
2022-12-22T08:21:09.205Z,41.20
2022-12-22T08:24:10.795Z,39.20
2022-12-22T08:27:14.474Z,39.90
2022-12-22T08:30:16.135Z,42.20
2022-12-22T08:33:17.645Z,35.00
2022-12-22T08:36:19.347Z,39.50
2022-12-22T08:39:22.858Z,42.30
2022-12-22T08:42:25.738Z,40.10
2022-12-22T08:45:27.927Z,38.20
2022-12-22T08:48:29.796Z,39.20
2022-12-22T08:51:32.347Z,39.30
2022-12-22T08:54:34.653Z,39.80
2022-12-22T08:57:36.721Z,38.40
2022-12-22T09:00:39.114Z,37.40
2022-12-22T09:03:41.154Z,33.80
2022-12-22T09:06:43.024Z,34.40
2022-12-22T09:09:45.517Z,32.20
2022-12-22T09:12:48.239Z,30.90
2022-12-22T09:15:51.310Z,32.60
2022-12-22T09:18:52.931Z,34.50
2022-12-22T09:21:55.904Z,33.60
2022-12-22T09:24:57.895Z,34.20
2022-12-22T09:28:00.413Z,37.60
2022-12-22T09:31:03.349Z,50.20
2022-12-22T09:34:04.920Z,40.40
2022-12-22T09:37:06.673Z,39.80
2022-12-22T09:40:08.745Z,45.90
2022-12-22T09:43:15.715Z,41.70
2022-12-22T09:46:17.432Z,38.30
2022-12-22T09:49:19.471Z,37.90
2022-12-22T09:52:29.533Z,37.00
2022-12-22T09:55:45.094Z,33.30
2022-12-22T09:58:47.275Z,33.80
2022-12-22T10:01:48.947Z,29.60
2022-12-22T10:05:04.240Z,31.80
2022-12-22T10:08:10.759Z,33.10
2022-12-22T10:11:17.662Z,34.50
2022-12-22T10:14:19.323Z,35.50
2022-12-22T10:17:32.703Z,30.00
2022-12-22T10:20:34.451Z,32.10
2022-12-22T10:23:40.277Z,34.50
2022-12-22T10:26:42.548Z,30.90
2022-12-22T10:29:44.416Z,34.50
2022-12-22T10:33:02.690Z,33.10
2022-12-22T10:36:05.459Z,35.20
2022-12-22T10:39:08.729Z,36.90
2022-12-22T10:42:13.841Z,32.60
2022-12-22T10:45:23.649Z,29.50
2022-12-22T10:48:29.082Z,32.50
2022-12-22T10:51:31.156Z,31.90
2022-12-22T10:54:36.232Z,36.20
2022-12-22T10:57:37.872Z,35.20
2022-12-22T11:00:39.526Z,32.80
2022-12-22T11:03:41.076Z,30.90
2022-12-22T11:06:46.138Z,29.10
2022-12-22T11:09:48.997Z,30.50
2022-12-22T11:13:09.420Z,31.90
2022-12-22T11:16:17.480Z,29.50
2022-12-22T11:19:39.702Z,31.60
2022-12-22T11:22:41.815Z,32.30
2022-12-22T11:25:49.857Z,33.10
2022-12-22T11:28:57.837Z,31.40
2022-12-22T11:32:09.438Z,29.80
2022-12-22T11:35:17.240Z,32.00
2022-12-22T11:38:31.180Z,28.50
2022-12-22T11:41:38.883Z,35.20
2022-12-22T11:44:58.563Z,31.50
2022-12-22T11:48:09.648Z,30.80
2022-12-22T11:51:22.323Z,31.10
2022-12-22T11:54:31.812Z,35.90
2022-12-22T11:57:37.481Z,39.20
2022-12-22T12:01:20.343Z,38.90
2022-12-22T12:04:27.918Z,36.00
2022-12-22T12:07:41.973Z,32.10
2022-12-22T12:10:57.217Z,42.70
2022-12-22T12:14:11.262Z,37.10
2022-12-22T12:17:28.396Z,42.10
2022-12-22T12:23:34.363Z,35.10
2022-12-22T12:29:40.287Z,37.70
2022-12-22T12:35:47.341Z,37.60
2022-12-22T12:39:10.872Z,36.20
2022-12-22T12:42:18.936Z,40.60
2022-12-22T12:45:32.577Z,36.30
2022-12-22T12:48:34.264Z,37.80
2022-12-22T12:51:46.767Z,37.00
2022-12-22T12:54:48.470Z,38.20
2022-12-22T12:57:50.997Z,36.10
2022-12-22T13:00:58.473Z,33.20
2022-12-22T13:04:03.681Z,35.10
2022-12-22T13:07:06.614Z,29.40
2022-12-22T13:10:18.218Z,35.70
2022-12-22T13:13:25.715Z,41.10
2022-12-22T13:16:28.724Z,39.30
2022-12-22T13:19:30.770Z,31.60
2022-12-22T13:22:33.362Z,37.50
2022-12-22T13:25:45.591Z,38.60
2022-12-22T13:29:10.152Z,37.30
2022-12-22T13:32:14.787Z,35.60
2022-12-22T13:35:33.776Z,34.20
2022-12-22T13:38:37.768Z,37.00
2022-12-22T13:41:40.834Z,40.40
2022-12-22T13:44:42.732Z,36.60
2022-12-22T13:47:45.307Z,36.90
2022-12-22T13:50:58.007Z,37.80
2022-12-22T13:54:11.578Z,42.40
2022-12-22T13:57:18.581Z,31.30
2022-12-22T14:00:21.706Z,44.40
2022-12-22T14:03:57.696Z,41.80
2022-12-22T14:06:46.061Z,38.50
2022-12-22T14:09:51.211Z,37.30
2022-12-22T14:12:52.864Z,37.40
2022-12-22T14:16:05.556Z,39.50
2022-12-22T14:19:08.401Z,39.30
2022-12-22T14:22:12.083Z,40.60
2022-12-22T14:25:15.780Z,42.80
2022-12-22T14:28:26.551Z,43.00
2022-12-22T14:31:28.245Z,38.80
2022-12-22T14:34:31.175Z,41.70
2022-12-22T14:37:33.382Z,43.80
2022-12-22T14:40:35.244Z,41.80
2022-12-22T14:43:36.861Z,44.50
2022-12-22T14:46:39.298Z,41.50
2022-12-22T14:49:52.205Z,45.50
2022-12-22T14:52:55.707Z,51.10
2022-12-22T14:55:57.328Z,63.60
2022-12-22T14:59:12.231Z,55.90
2022-12-22T15:02:27.264Z,54.80
2022-12-22T15:05:35.217Z,50.80
2022-12-22T15:08:41.508Z,58.30
2022-12-22T15:11:53.795Z,52.30
2022-12-22T15:14:55.452Z,54.40
2022-12-22T15:17:57.458Z,47.80
2022-12-22T15:20:59.020Z,47.40
2022-12-22T15:24:01.181Z,49.90
2022-12-22T15:27:02.921Z,45.70
2022-12-22T15:30:04.858Z,44.50
2022-12-22T15:33:17.615Z,45.20
2022-12-22T15:36:19.263Z,52.50
2022-12-22T15:39:24.947Z,48.40
2022-12-22T15:42:26.571Z,45.10
2022-12-22T15:45:29.771Z,48.10
2022-12-22T15:48:33.361Z,40.20
2022-12-22T15:51:34.957Z,47.20
2022-12-22T15:54:36.723Z,45.20
2022-12-22T15:57:38.224Z,45.10
2022-12-22T16:00:40.127Z,50.90
2022-12-22T16:03:42.366Z,44.50
2022-12-22T16:06:44.455Z,52.50
2022-12-22T16:09:46.633Z,54.60
2022-12-22T16:12:54.204Z,47.30
2022-12-22T16:15:56.364Z,49.00
2022-12-22T16:18:58.236Z,53.30
2022-12-22T16:21:59.802Z,48.50
2022-12-22T16:25:02.401Z,49.50
2022-12-22T16:28:05.001Z,56.40
2022-12-22T16:31:11.461Z,49.10
2022-12-22T16:34:13.169Z,48.60
2022-12-22T16:37:14.982Z,50.60
2022-12-22T16:40:18.285Z,51.80
2022-12-22T16:43:49.646Z,49.70
2022-12-22T16:46:51.442Z,41.70
2022-12-22T16:49:53.364Z,47.20
2022-12-22T16:52:55.041Z,50.90
2022-12-22T16:55:57.300Z,43.60
2022-12-22T16:58:59.044Z,37.80
2022-12-22T17:02:00.720Z,44.00
2022-12-22T17:05:02.992Z,43.20
2022-12-22T17:08:06.603Z,48.30
2022-12-22T17:11:11.177Z,53.40
2022-12-22T17:14:36.339Z,56.50
2022-12-22T17:17:42.077Z,54.00
2022-12-22T17:20:45.535Z,49.50
2022-12-22T17:23:49.000Z,46.70
2022-12-22T17:26:51.112Z,43.30
2022-12-22T17:29:53.442Z,40.40
2022-12-22T17:32:55.102Z,45.60
2022-12-22T17:35:56.734Z,42.50
2022-12-22T17:38:58.827Z,46.20
2022-12-22T17:42:00.490Z,43.70
2022-12-22T17:45:02.077Z,45.30
2022-12-22T17:48:03.877Z,45.30
2022-12-22T17:51:05.624Z,39.20
2022-12-22T17:54:24.501Z,43.80
2022-12-22T17:57:28.963Z,38.90
2022-12-22T18:00:31.545Z,37.90
2022-12-22T18:03:33.981Z,41.60
2022-12-22T18:06:37.022Z,44.70
2022-12-22T18:09:38.676Z,42.30
2022-12-22T18:12:40.446Z,41.40
2022-12-22T18:15:42.083Z,38.50
2022-12-22T18:18:44.068Z,42.50
2022-12-22T18:21:45.642Z,44.10
2022-12-22T18:24:48.512Z,38.30
2022-12-22T18:27:50.270Z,47.60
2022-12-22T18:30:51.804Z,46.70
2022-12-22T18:33:53.480Z,42.80
2022-12-22T18:36:55.144Z,37.80
2022-12-22T18:39:56.802Z,44.50
2022-12-22T18:42:58.723Z,41.40
2022-12-22T18:46:00.435Z,47.50
2022-12-22T18:49:05.645Z,47.80
2022-12-22T18:52:18.397Z,47.50
2022-12-22T18:55:21.398Z,43.30
2022-12-22T18:58:23.375Z,47.40
2022-12-22T19:01:26.335Z,44.70
2022-12-22T19:04:28.410Z,39.10
2022-12-22T19:07:29.968Z,41.10
2022-12-22T19:10:37.372Z,49.50
2022-12-22T19:13:40.768Z,49.30
2022-12-22T19:16:42.527Z,45.60
2022-12-22T19:19:44.115Z,47.20
2022-12-22T19:22:45.813Z,48.10
2022-12-22T19:25:48.635Z,44.80
2022-12-22T19:28:52.568Z,44.70
2022-12-22T19:31:54.401Z,43.80
2022-12-22T19:34:56.453Z,44.00
2022-12-22T19:38:00.641Z,45.40
2022-12-22T19:41:03.491Z,43.60
2022-12-22T19:44:05.477Z,43.40
2022-12-22T19:47:11.102Z,43.50
2022-12-22T19:50:31.503Z,42.40
2022-12-22T19:53:32.997Z,44.50
2022-12-22T19:56:36.296Z,40.60
2022-12-22T19:59:40.114Z,44.30
2022-12-22T20:02:42.233Z,44.20
2022-12-22T20:05:44.196Z,44.00
2022-12-22T20:08:45.866Z,47.00
2022-12-22T20:11:47.539Z,44.20
2022-12-22T20:14:49.383Z,40.50
2022-12-22T20:17:51.688Z,38.20
2022-12-22T20:20:57.620Z,41.40
2022-12-22T20:24:00.762Z,40.90
2022-12-22T20:27:02.375Z,43.00
2022-12-22T20:30:04.252Z,41.30
2022-12-22T20:33:05.998Z,44.50
2022-12-22T20:36:25.064Z,45.30
2022-12-22T20:39:26.798Z,47.10
2022-12-22T20:46:12.982Z,43.60
2022-12-22T20:49:15.753Z,45.10
2022-12-22T20:52:18.422Z,48.70
2022-12-22T20:55:21.444Z,43.40
2022-12-22T20:58:23.341Z,43.40
2022-12-22T21:01:25.136Z,49.60
2022-12-22T21:04:26.836Z,46.30
2022-12-22T21:07:28.506Z,38.30
2022-12-22T21:10:30.180Z,44.70
2022-12-22T21:13:31.859Z,43.00
2022-12-22T21:16:34.425Z,45.30
2022-12-22T21:19:36.022Z,46.70
2022-12-22T21:22:37.715Z,49.70
2022-12-22T21:25:44.744Z,52.80
2022-12-22T21:28:48.329Z,52.90
2022-12-22T21:31:50.284Z,47.80
2022-12-22T21:34:52.132Z,47.00
2022-12-22T21:37:54.614Z,50.60
2022-12-22T21:40:56.168Z,50.20
2022-12-22T21:43:57.730Z,51.10
2022-12-22T21:46:59.900Z,52.50
2022-12-22T21:50:01.604Z,49.50
2022-12-22T21:53:03.221Z,51.70
2022-12-22T21:56:09.957Z,48.90
2022-12-22T22:03:40.430Z,53.10
2022-12-22T22:06:42.142Z,50.00
2022-12-22T22:09:43.715Z,50.40
2022-12-22T22:12:45.756Z,43.40
2022-12-22T22:15:47.775Z,46.70
2022-12-22T22:18:49.577Z,46.60
2022-12-22T22:21:51.166Z,47.00
2022-12-22T22:24:52.648Z,46.10
2022-12-22T22:27:54.412Z,46.50
2022-12-22T22:30:56.405Z,43.00
2022-12-22T22:33:58.400Z,44.60
2022-12-22T22:37:00.105Z,47.60
2022-12-22T22:40:02.134Z,47.00
2022-12-22T22:43:03.882Z,45.40
2022-12-22T22:46:06.491Z,40.30
2022-12-22T22:49:08.093Z,47.70
2022-12-22T22:52:10.341Z,47.20
2022-12-22T22:55:12.825Z,44.30
2022-12-22T22:58:14.427Z,45.50
2022-12-22T23:01:16.000Z,45.10
2022-12-22T23:04:17.730Z,43.90
2022-12-22T23:07:19.545Z,46.90
2022-12-22T23:10:21.188Z,44.60
2022-12-22T23:13:23.455Z,51.70
2022-12-22T23:16:25.268Z,41.70
2022-12-22T23:19:27.079Z,41.00
2022-12-22T23:22:28.745Z,48.00
2022-12-22T23:25:30.400Z,43.30
2022-12-22T23:28:32.614Z,41.40
2022-12-22T23:31:34.829Z,46.30
2022-12-22T23:34:36.606Z,48.20
2022-12-22T23:37:38.194Z,47.10
2022-12-22T23:40:55.710Z,54.00
2022-12-22T23:43:57.471Z,48.10
2022-12-22T23:46:59.157Z,42.30
2022-12-22T23:50:00.782Z,47.80
2022-12-22T23:53:02.410Z,46.40
2022-12-22T23:56:04.301Z,42.60
2022-12-22T23:59:05.882Z,45.50
